Terminal Aerodrome Forecast
Issued by NWS

Home | Current Version | Previous Version | Text Only | Print | Product List | Glossary On
Versions: 1 2 3 4 5 6 7 8 9 10 11 12 13 14 15
066
FTUS45 KTFX 230520
TAFHVR
TAF
KHVR 230520Z 2306/2406 VRB05KT P6SM FEW250
     FM231600 15011KT P6SM FEW250
     FM231900 18011G19KT P6SM BKN200=

USA.gov is the U.S. government's official web portal to all federal, state and local government web resources and services.